Time;durP1;ratioP1;P1;durP2;ratioP2;P2;SDS_P1;SDS_P2;PMS_P1;PMS_P2;Temp;Humidity;BMP_temperature;BMP_pressure;BME280_temperature;BME280_humidity;BME280_pressure;Samples;Min_cycle;Max_cycle;Signal;HPM_P1;HPM_P2
2021/01/23 00:04:35;;;;;;;16.02;8.73;;;2.10;99.90;;;;;;4968499;29;20081;-94
2021/01/23 00:18:40;;;;;;;19.48;9.57;;;2.10;99.90;;;;;;5287929;23;20085;-95
2021/01/23 00:25:21;;;;;;;22.17;12.13;;;2.10;99.90;;;;;;4888428;29;20135;-96
2021/01/23 00:51:12;;;;;;;13.90;7.82;;;1.90;99.90;;;;;;5827719;23;21289;-92
2021/01/23 01:05:02;;;;;;;13.98;8.20;;;1.90;99.90;;;;;;5262328;23;20500;-89
2021/01/23 01:18:54;;;;;;;12.20;7.43;;;1.90;99.90;;;;;;5613578;23;20085;-89
2021/01/23 01:33:19;;;;;;;14.13;8.98;;;2.10;99.90;;;;;;5153624;22;20448;-95
2021/01/23 01:35:57;;;;;;;;;;;;;;;;;;;;;
2021/01/23 01:39:04;;;;;;;14.25;7.78;;;2.90;99.90;;;;;;5093183;28;20033;-89
2021/01/23 01:41:31;;;;;;;16.05;7.97;;;1.90;99.90;;;;;;5094220;28;20047;-96
2021/01/23 01:44:16;;;;;;;20.25;8.52;;;2.30;99.90;;;;;;5092325;28;20088;-96
2021/01/23 01:46:44;;;;;;;11.23;7.03;;;2.00;99.90;;;;;;5075567;28;20036;-95
2021/01/23 01:49:22;;;;;;;12.43;7.65;;;2.00;99.90;;;;;;5092355;28;20017;-95
2021/01/23 01:51:57;;;;;;;13.65;7.75;;;1.90;99.90;;;;;;5091508;28;20048;-95
2021/01/23 01:54:26;;;;;;;12.95;7.80;;;1.90;99.90;;;;;;5181268;22;20055;-95
2021/01/23 01:57:10;;;;;;;15.20;8.65;;;1.90;99.90;;;;;;5384756;22;20373;-91
2021/01/23 01:59:48;;;;;;;14.07;8.30;;;1.80;99.90;;;;;;5091030;28;20088;-95
2021/01/23 02:02:58;;;;;;;15.57;8.55;;;1.90;99.90;;;;;;5093212;28;20025;-95
2021/01/23 02:05:51;;;;;;;15.30;7.18;;;1.80;99.90;;;;;;5035356;28;20041;-95
2021/01/23 02:08:46;;;;;;;14.82;7.47;;;1.80;99.90;;;;;;4998926;28;20073;-94
2021/01/23 02:16:51;;;;;;;11.60;7.30;;;1.90;99.90;;;;;;6081959;22;20507;31
2021/01/23 02:19:55;;;;;;;17.92;7.70;;;2.00;99.90;;;;;;5658365;22;20204;-91
2021/01/23 02:46:00;;;;;;;13.95;7.95;;;1.90;99.90;;;;;;5864911;22;20109;-94
2021/01/23 03:00:59;;;;;;;11.10;6.20;;;1.80;99.90;;;;;;5032078;28;20056;-95
2021/01/23 03:04:24;;;;;;;13.10;6.90;;;2.00;99.90;;;;;;5046745;28;20025;-95
2021/01/23 03:27:14;;;;;;;12.40;6.70;;;1.70;99.90;;;;;;5382809;22;20489;-94
2021/01/23 03:30:24;;;;;;;14.02;7.00;;;2.00;99.90;;;;;;5021580;28;20530;-96
2021/01/23 03:40:24;;;;;;;13.88;7.65;;;1.70;99.90;;;;;;4922648;29;20050;-94
2021/01/23 03:43:34;;;;;;;11.43;6.50;;;1.70;99.90;;;;;;4934404;29;20265;-94
2021/01/23 03:53:37;;;;;;;12.93;6.85;;;1.70;99.90;;;;;;4862292;29;20036;-94
2021/01/23 04:19:46;;;;;;;11.23;5.75;;;1.70;99.90;;;;;;4976501;28;20101;-94
2021/01/23 04:22:45;;;;;;;10.07;5.70;;;1.60;99.90;;;;;;4995819;28;20027;-94
2021/01/23 05:31:31;;;;;;;13.52;7.95;;;2.10;99.90;;;;;;5519561;23;20037;-90
2021/01/23 05:38:00;;;;;;;12.35;7.97;;;2.20;99.90;;;;;;5010794;28;20042;-91
2021/01/23 05:45:21;;;;;;;17.67;8.80;;;2.20;99.90;;;;;;4964177;29;20102;-90
2021/01/23 05:48:27;;;;;;;;;;;;;;;;;;;;;
2021/01/23 06:02:50;;;;;;;13.15;8.00;;;2.20;99.90;;;;;;5503773;23;20074;-90
2021/01/23 06:05:18;;;;;;;12.15;7.43;;;2.20;99.90;;;;;;4981814;28;20027;-89
2021/01/23 06:07:45;;;;;;;12.07;7.18;;;2.10;99.90;;;;;;4979700;28;20039;-93
2021/01/23 06:10:24;;;;;;;14.55;8.48;;;2.20;99.90;;;;;;4986188;28;20034;-91
2021/01/23 06:12:53;;;;;;;11.65;7.22;;;2.10;99.90;;;;;;4947111;29;20046;-92
2021/01/23 06:15:41;;;;;;;13.90;8.50;;;2.00;99.90;;;;;;4923409;29;20130;-92
2021/01/23 06:18:22;;;;;;;15.07;7.70;;;1.90;99.90;;;;;;4931756;29;20028;-93
2021/01/23 06:20:50;;;;;;;14.45;8.80;;;1.90;99.90;;;;;;4916689;29;20104;-89
2021/01/23 06:23:17;;;;;;;14.50;8.25;;;2.10;99.90;;;;;;4939167;29;20036;-93
2021/01/23 06:25:49;;;;;;;12.77;8.02;;;2.20;99.90;;;;;;4922976;29;20612;-90
2021/01/23 06:28:15;;;;;;;;;;;2.10;99.90;;;;;;4902784;29;20032;-92
2021/01/23 06:30:41;;;;;;;13.35;7.75;;;2.30;99.90;;;;;;4906027;29;19917;-92
2021/01/23 06:33:25;;;;;;;11.45;7.53;;;2.40;99.90;;;;;;4907533;29;20062;-92
2021/01/23 06:36:12;;;;;;;13.00;8.00;;;2.40;99.90;;;;;;4921209;29;20091;-92
2021/01/23 06:39:01;;;;;;;14.13;8.75;;;2.50;99.90;;;;;;4912216;29;20493;-93
2021/01/23 06:41:33;;;;;;;14.35;8.05;;;2.50;99.90;;;;;;4902002;29;20024;-92
2021/01/23 06:44:11;;;;;;;;;;;2.50;99.90;;;;;;4902266;29;20135;-93
2021/01/23 06:46:55;;;;;;;16.83;9.32;;;2.60;99.90;;;;;;4950649;29;19934;-90
2021/01/23 06:49:26;;;;;;;16.98;8.48;;;2.50;99.90;;;;;;4958521;29;20031;-91
2021/01/23 06:52:07;;;;;;;16.45;8.43;;;2.70;99.90;;;;;;4945538;29;20111;-92
2021/01/23 06:54:35;;;;;;;12.68;8.25;;;2.80;99.90;;;;;;4923504;29;20119;-90
2021/01/23 06:57:03;;;;;;;17.08;7.68;;;2.70;99.90;;;;;;4939807;29;20028;-91
2021/01/23 06:59:34;;;;;;;16.08;9.38;;;2.70;99.90;;;;;;4963095;28;20436;-91
2021/01/23 07:02:03;;;;;;;11.02;7.47;;;2.80;99.90;;;;;;4957954;29;20058;-91
2021/01/23 07:04:36;;;;;;;12.27;6.75;;;2.80;99.90;;;;;;4958723;29;20036;-92
2021/01/23 07:07:08;;;;;;;14.73;7.85;;;2.80;99.90;;;;;;4942068;29;20047;-91
2021/01/23 07:10:04;;;;;;;10.07;6.43;;;2.90;99.90;;;;;;4943026;29;20032;-92
2021/01/23 07:13:06;;;;;;;14.80;7.97;;;2.90;99.90;;;;;;4933329;29;20358;-92
2021/01/23 07:15:43;;;;;;;10.23;6.97;;;2.90;99.90;;;;;;4845090;29;20034;-92
2021/01/23 07:18:16;;;;;;;11.50;6.05;;;3.00;99.90;;;;;;4847933;29;20106;-92
2021/01/23 07:20:57;;;;;;;11.15;6.70;;;3.10;99.90;;;;;;4816042;29;20102;-93
2021/01/23 07:23:29;;;;;;;14.63;8.77;;;3.10;99.90;;;;;;4830908;29;20038;-93
2021/01/23 07:26:21;;;;;;;16.20;8.90;;;3.10;99.90;;;;;;4809293;29;20026;-90
2021/01/23 07:29:05;;;;;;;11.32;7.07;;;3.10;99.90;;;;;;4818296;29;20054;-93
2021/01/23 07:31:36;;;;;;;11.40;7.72;;;3.10;99.90;;;;;;4849459;29;20030;-93
2021/01/23 07:39:50;;;;;;;9.80;6.75;;;3.20;99.90;;;;;;5972368;23;20486;-92
2021/01/23 07:54:18;;;;;;;17.33;8.15;;;3.30;99.90;;;;;;5232746;23;20045;-92
2021/01/23 08:12:40;;;;;;;12.80;7.28;;;3.50;99.90;;;;;;5419223;23;20076;-92
2021/01/23 08:21:20;;;;;;;8.70;5.80;;;3.30;99.90;;;;;;5318666;23;20128;-93
2021/01/23 08:23:55;;;;;;;11.18;6.68;;;3.30;99.90;;;;;;5019445;28;20014;-91
2021/01/23 08:26:52;;;;;;;11.13;6.82;;;3.30;99.90;;;;;;5026287;28;20021;-92
2021/01/23 08:29:25;;;;;;;15.70;7.05;;;3.40;99.90;;;;;;4977381;28;20031;-90
2021/01/23 08:32:07;;;;;;;12.35;7.60;;;3.40;99.90;;;;;;4981472;28;20049;-92
2021/01/23 08:34:48;;;;;;;;;;;;;;;;;;;;;
2021/01/23 09:12:02;;;;;;;12.60;8.07;;;3.80;99.90;;;;;;5453001;23;20045;-94
2021/01/23 09:18:35;;;;;;;16.23;8.75;;;3.90;99.90;;;;;;5166619;23;20043;-91
2021/01/23 09:21:10;;;;;;;13.60;8.38;;;4.00;99.90;;;;;;4952467;28;20025;-92
2021/01/23 09:24:10;;;;;;;12.90;7.53;;;4.10;99.90;;;;;;5014935;28;20053;-91
2021/01/23 09:29:53;;;;;;;18.00;8.20;;;4.30;99.90;;;;;;5334769;23;20071;-93
2021/01/23 09:41:41;;;;;;;12.73;7.20;;;4.60;99.90;;;;;;5103927;23;20074;-92
2021/01/23 09:44:38;;;;;;;13.07;8.18;;;4.70;99.90;;;;;;5349139;23;20045;-90
2021/01/23 09:47:09;;;;;;;13.85;8.38;;;4.80;99.90;;;;;;4996937;28;20034;-91
2021/01/23 09:50:03;;;;;;;16.25;9.18;;;4.90;99.90;;;;;;4993314;28;20019;-91
2021/01/23 09:55:25;;;;;;;18.05;7.55;;;5.20;99.90;;;;;;5084521;23;20049;-92
2021/01/23 09:58:45;;;;;;;11.20;7.82;;;5.30;99.90;;;;;;4986986;28;20026;-92
2021/01/23 10:01:49;;;;;;;11.13;7.10;;;5.30;99.90;;;;;;5224637;23;20096;-92
2021/01/23 10:11:50;;;;;;;10.50;7.13;;;5.50;99.90;;;;;;4978400;29;20217;-92
2021/01/23 10:17:39;;;;;;;12.77;7.65;;;5.80;99.90;;;;;;5550843;23;20475;-91
2021/01/23 10:20:30;;;;;;;11.93;6.80;;;5.90;99.90;;;;;;5012471;28;20038;-96
2021/01/23 10:23:04;;;;;;;15.13;7.43;;;5.90;99.90;;;;;;5020751;28;20014;-96
2021/01/23 10:25:38;;;;;;;11.73;6.88;;;5.90;99.90;;;;;;5000368;28;20110;-96
2021/01/23 10:36:13;;;;;;;8.52;6.00;;;6.10;99.90;;;;;;5192652;23;20060;-94
2021/01/23 10:38:41;;;;;;;13.85;7.65;;;6.20;99.90;;;;;;5056889;28;20025;-94
2021/01/23 10:41:09;;;;;;;15.07;7.65;;;6.20;99.90;;;;;;5030023;28;20021;-94
2021/01/23 10:43:35;;;;;;;10.95;7.15;;;6.30;99.90;;;;;;5037442;28;20022;-93
2021/01/23 10:46:03;;;;;;;10.45;6.57;;;6.40;99.90;;;;;;4997006;28;20054;-96
2021/01/23 10:48:36;;;;;;;9.40;5.82;;;6.60;99.90;;;;;;4997741;28;20026;-95
2021/01/23 10:51:03;;;;;;;11.68;7.07;;;6.70;99.90;;;;;;4996650;28;20042;-95
2021/01/23 10:53:36;;;;;;;10.35;6.40;;;6.80;99.90;;;;;;4982986;28;20050;-92
2021/01/23 10:56:06;;;;;;;14.80;7.35;;;6.80;99.90;;;;;;4992021;28;20043;-96
2021/01/23 10:58:34;;;;;;;17.52;9.50;;;6.90;99.90;;;;;;4972938;28;20610;-89
2021/01/23 11:01:01;;;;;;;7.13;5.15;;;7.00;99.90;;;;;;4979387;28;20081;-91
2021/01/23 11:03:29;;;;;;;7.90;5.00;;;7.00;99.90;;;;;;4979224;28;20416;-92
2021/01/23 11:05:57;;;;;;;12.90;6.30;;;7.10;99.90;;;;;;4983712;28;20035;-91
2021/01/23 11:08:25;;;;;;;8.25;5.70;;;7.10;99.90;;;;;;4987981;28;20082;-92
2021/01/23 11:10:57;;;;;;;8.75;4.40;;;7.20;99.90;;;;;;4968228;28;20049;-92
2021/01/23 11:13:25;;;;;;;7.60;5.05;;;7.20;99.90;;;;;;4989097;28;20038;-93
2021/01/23 11:15:51;;;;;;;6.60;4.28;;;7.20;99.90;;;;;;4973434;28;20027;-92
2021/01/23 11:18:22;;;;;;;9.80;4.68;;;7.30;99.90;;;;;;5036353;28;20030;-90
2021/01/23 11:20:49;;;;;;;7.85;4.32;;;7.40;99.90;;;;;;4989668;28;20034;-91
2021/01/23 11:23:15;;;;;;;7.97;3.80;;;7.40;99.90;;;;;;5001128;28;20101;-93
2021/01/23 11:25:42;;;;;;;8.23;4.40;;;7.50;99.90;;;;;;4998441;28;20026;-90
2021/01/23 11:28:09;;;;;;;5.53;3.72;;;7.50;99.90;;;;;;5029527;28;20069;-89
2021/01/23 11:30:56;;;;;;;;;;;;;;;;;;;;;
2021/01/23 11:33:26;;;;;;;;;;;7.50;99.90;;;;;;5009935;28;20038;-90
2021/01/23 11:35:52;;;;;;;4.35;3.30;;;7.50;99.90;;;;;;5013528;28;19956;-90
2021/01/23 11:38:19;;;;;;;4.05;3.03;;;7.50;99.90;;;;;;5018136;28;20041;-92
2021/01/23 11:40:44;;;;;;;6.10;3.10;;;7.60;99.90;;;;;;5017424;28;20045;-89
2021/01/23 11:43:23;;;;;;;5.72;2.83;;;7.70;99.90;;;;;;4993125;28;20022;-92
2021/01/23 11:45:55;;;;;;;3.67;2.15;;;7.50;99.90;;;;;;5013561;28;20082;-93
2021/01/23 11:48:21;;;;;;;3.78;2.40;;;7.90;99.90;;;;;;5012465;28;20026;-94
2021/01/23 11:50:47;;;;;;;3.63;2.40;;;7.50;99.90;;;;;;5015539;28;20117;-92
2021/01/23 11:53:16;;;;;;;4.80;3.33;;;7.70;99.90;;;;;;4997408;28;20018;-93
2021/01/23 11:55:44;;;;;;;3.95;2.28;;;7.80;99.90;;;;;;5001016;28;20061;-92
2021/01/23 11:58:12;;;;;;;5.15;2.40;;;7.90;99.90;;;;;;5001475;28;20022;-89
2021/01/23 12:00:38;;;;;;;5.13;2.40;;;8.00;99.90;;;;;;5009963;28;20015;-90
2021/01/23 12:03:05;;;;;;;3.70;2.55;;;8.00;99.90;;;;;;5018733;28;20176;-91
2021/01/23 12:05:32;;;;;;;2.80;2.05;;;8.20;99.90;;;;;;5017832;28;20132;-91
2021/01/23 12:08:01;;;;;;;3.65;1.95;;;8.30;99.90;;;;;;5013900;28;20017;-91
2021/01/23 12:10:27;;;;;;;3.40;2.30;;;8.30;99.90;;;;;;5051837;28;20072;-92
2021/01/23 12:12:55;;;;;;;5.55;3.20;;;8.40;99.90;;;;;;5048528;28;20046;-90
2021/01/23 12:15:24;;;;;;;7.68;3.47;;;8.40;99.90;;;;;;5020962;28;20048;-91
2021/01/23 12:17:53;;;;;;;7.82;3.53;;;8.30;99.90;;;;;;5041727;28;20048;-92
2021/01/23 12:20:22;;;;;;;2.75;2.22;;;8.30;99.90;;;;;;5042674;28;20022;-90
2021/01/23 12:22:52;;;;;;;3.95;2.40;;;8.30;99.90;;;;;;5028731;28;20021;-91
2021/01/23 12:25:19;;;;;;;4.45;2.55;;;8.20;99.90;;;;;;5029291;28;20088;-91
2021/01/23 12:27:44;;;;;;;5.35;2.40;;;8.00;99.90;;;;;;5007700;28;20037;-91
2021/01/23 12:30:15;;;;;;;7.43;2.55;;;8.20;99.90;;;;;;5006507;28;20030;-91
2021/01/23 12:32:44;;;;;;;4.90;2.50;;;8.20;99.90;;;;;;5027526;28;20033;-90
2021/01/23 12:35:12;;;;;;;4.28;2.30;;;8.00;99.90;;;;;;5009787;28;20080;-89
2021/01/23 12:37:44;;;;;;;4.78;2.05;;;8.00;99.90;;;;;;5025540;28;20041;-90
2021/01/23 12:40:20;;;;;;;5.30;2.60;;;7.90;99.90;;;;;;5006770;28;20026;-90
2021/01/23 12:42:48;;;;;;;4.32;3.17;;;7.90;99.90;;;;;;5025893;28;20114;-90
2021/01/23 12:45:22;;;;;;;4.55;2.72;;;8.00;99.90;;;;;;5009965;28;20050;-89
2021/01/23 12:47:48;;;;;;;2.85;2.63;;;8.20;99.90;;;;;;5019561;28;20034;-87
2021/01/23 12:50:14;;;;;;;4.75;2.20;;;8.30;99.90;;;;;;5021945;28;20547;-89
2021/01/23 12:52:45;;;;;;;4.15;2.05;;;8.40;99.90;;;;;;5002488;28;20038;-88
2021/01/23 12:55:11;;;;;;;;;;;8.50;99.90;;;;;;5021056;28;20032;-88
2021/01/23 12:57:42;;;;;;;4.70;2.53;;;8.60;99.90;;;;;;5028569;28;19937;-91
2021/01/23 13:00:11;;;;;;;7.30;3.03;;;8.70;99.90;;;;;;5030131;28;20029;-89
2021/01/23 13:02:49;;;;;;;6.10;2.72;;;8.80;99.90;;;;;;5001767;28;20447;-89
2021/01/23 13:05:22;;;;;;;4.65;2.83;;;8.80;99.90;;;;;;5006688;28;20083;-89
2021/01/23 13:08:03;;;;;;;5.88;2.50;;;8.80;99.90;;;;;;5006418;28;20037;-88
2021/01/23 13:10:33;;;;;;;5.82;3.25;;;8.80;99.90;;;;;;5009130;28;20038;-89
2021/01/23 13:12:59;;;;;;;3.47;2.53;;;9.00;99.90;;;;;;4972373;28;20053;-90
2021/01/23 13:15:25;;;;;;;5.18;2.70;;;9.00;99.90;;;;;;5018735;28;20022;-89
2021/01/23 13:17:51;;;;;;;3.35;2.50;;;9.00;99.90;;;;;;5028206;28;20036;-89
2021/01/23 13:20:19;;;;;;;6.40;3.78;;;9.00;99.90;;;;;;5031645;28;20049;-91
2021/01/23 13:22:46;;;;;;;3.90;2.75;;;9.10;99.90;;;;;;5018442;28;20100;-91
2021/01/23 13:25:12;;;;;;;6.97;3.70;;;9.20;99.90;;;;;;5010777;28;20091;-92
2021/01/23 13:27:42;;;;;;;6.15;3.35;;;8.80;99.90;;;;;;5014832;28;20028;-92
2021/01/23 13:30:09;;;;;;;3.90;2.67;;;9.20;99.90;;;;;;4990115;28;20526;-92
2021/01/23 13:32:45;;;;;;;6.25;3.55;;;9.20;99.90;;;;;;5012374;28;20045;-92
2021/01/23 13:35:47;;;;;;;4.47;3.00;;;9.20;99.90;;;;;;5013668;28;20064;-93
2021/01/23 13:38:13;;;;;;;3.58;2.40;;;9.10;99.90;;;;;;4934026;29;20103;-94
2021/01/23 13:40:43;;;;;;;5.30;3.17;;;9.00;99.90;;;;;;5010667;28;20022;-93
2021/01/23 13:43:09;;;;;;;4.97;2.67;;;9.10;99.90;;;;;;5081862;23;20039;-94
2021/01/23 13:49:03;;;;;;;;;;;8.80;99.90;;;;;;5032627;28;20038;-95
2021/01/23 13:51:29;;;;;;;7.07;3.55;;;8.90;99.90;;;;;;4970703;28;19922;-93
2021/01/23 13:53:58;;;;;;;3.95;1.88;;;9.00;99.90;;;;;;4906927;29;20132;-94
2021/01/23 13:56:25;;;;;;;1.73;1.60;;;8.90;99.90;;;;;;4890200;29;20045;-95
2021/01/23 13:58:54;;;;;;;3.45;2.03;;;8.90;99.90;;;;;;4903371;29;20036;-94
2021/01/23 14:01:21;;;;;;;2.33;1.77;;;9.00;99.90;;;;;;4912231;29;20058;-92
2021/01/23 14:04:02;;;;;;;6.18;2.40;;;9.00;99.90;;;;;;4912144;29;20037;-92
2021/01/23 14:09:04;;;;;;;4.60;1.45;;;8.80;99.90;;;;;;5486382;23;20025;-88
2021/01/23 14:11:53;;;;;;;3.58;2.28;;;8.80;99.90;;;;;;5007799;28;20068;-95
2021/01/23 14:17:42;;;;;;;4.85;1.92;;;8.70;99.90;;;;;;4953973;28;20046;-95
2021/01/23 14:20:23;;;;;;;2.50;1.90;;;8.50;99.90;;;;;;4975874;28;20514;-96
2021/01/23 14:22:49;;;;;;;3.20;1.80;;;8.30;99.90;;;;;;4983831;28;20023;-95
2021/01/23 14:25:47;;;;;;;;;;;;;;;;;;;;;
2021/01/23 14:28:13;;;;;;;2.42;1.80;;;8.20;99.90;;;;;;4984486;28;20114;-94
2021/01/23 14:30:47;;;;;;;2.47;1.60;;;8.10;99.90;;;;;;5004065;28;20030;-94
2021/01/23 14:33:15;;;;;;;3.85;1.80;;;8.20;99.90;;;;;;4989410;28;20072;-95
2021/01/23 14:35:42;;;;;;;4.30;2.20;;;8.20;99.90;;;;;;5006458;28;20042;-95
2021/01/23 14:38:14;;;;;;;4.40;2.13;;;8.20;99.90;;;;;;5026785;22;20043;-94
2021/01/23 14:40:44;;;;;;;3.33;2.30;;;8.10;99.90;;;;;;5020272;28;20046;-96
2021/01/23 14:49:52;;;;;;;5.18;2.05;;;7.80;99.90;;;;;;5989733;23;20032;-88
2021/01/23 15:07:52;;;;;;;6.50;3.45;;;7.70;99.90;;;;;;5341872;23;20085;-87
2021/01/23 15:10:21;;;;;;;4.72;1.95;;;7.80;99.90;;;;;;5002233;28;20027;-85
2021/01/23 15:12:46;;;;;;;3.15;1.70;;;7.90;99.90;;;;;;4983562;28;20030;-88
2021/01/23 15:26:07;;;;;;;2.50;1.48;;;7.80;99.90;;;;;;5649150;23;20054;-95
2021/01/23 15:28:42;;;;;;;2.65;1.77;;;7.80;99.90;;;;;;5240410;23;20062;-94
2021/01/23 15:31:50;;;;;;;2.85;1.30;;;7.70;99.90;;;;;;4998500;28;20041;-96
2021/01/23 15:37:33;;;;;;;2.33;1.17;;;7.70;99.90;;;;;;4983437;28;20082;-95
2021/01/23 15:40:01;;;;;;;1.92;1.20;;;7.50;99.90;;;;;;5008561;28;20049;-95
2021/01/23 15:43:00;;;;;;;;;;;;;;;;;;;;;
2021/01/23 16:13:09;;;;;;;4.07;1.73;;;7.50;99.90;;;;;;5951395;23;20357;-94
2021/01/23 16:16:13;;;;;;;;;;;;;;;;;;;;;
2021/01/23 16:53:18;;;;;;;3.22;2.08;;;6.60;99.90;;;;;;3976749;23;20290;-93
2021/01/23 16:58:26;;;;;;;2.13;1.73;;;6.60;99.90;;;;;;5511094;23;20075;-89
2021/01/23 17:00:54;;;;;;;4.78;2.55;;;6.60;99.90;;;;;;5031215;28;20084;-95
2021/01/23 17:03:27;;;;;;;3.90;2.55;;;6.60;99.90;;;;;;5009487;28;20046;-92
2021/01/23 17:06:04;;;;;;;;;;;;;;;;;;;;;
2021/01/23 17:08:34;;;;;;;6.32;2.60;;;6.60;99.90;;;;;;5007250;28;20117;-91
2021/01/23 17:11:00;;;;;;;4.13;2.60;;;6.60;99.90;;;;;;5023068;28;20124;-91
2021/01/23 17:13:38;;;;;;;2.63;1.83;;;6.50;99.90;;;;;;5015389;28;20077;-91
2021/01/23 17:16:15;;;;;;;4.15;2.08;;;6.60;99.90;;;;;;5016915;28;20719;-88
2021/01/23 17:18:46;;;;;;;3.83;2.78;;;6.50;99.90;;;;;;4996898;28;20552;-91
2021/01/23 17:21:26;;;;;;;3.20;2.45;;;6.50;99.90;;;;;;5020387;28;20022;-94
2021/01/23 17:23:55;;;;;;;3.95;2.53;;;6.40;99.90;;;;;;4990200;28;20049;-90
2021/01/23 17:26:41;;;;;;;5.78;3.33;;;6.40;99.90;;;;;;5013029;28;20022;-92
2021/01/23 17:29:10;;;;;;;7.60;3.33;;;6.40;99.90;;;;;;5010922;28;20038;-93
2021/01/23 17:35:00;;;;;;;;;;;6.20;99.90;;;;;;5012376;28;20026;-93
2021/01/23 17:37:26;;;;;;;6.28;3.42;;;6.20;99.90;;;;;;5014491;28;19945;-92
2021/01/23 17:39:57;;;;;;;4.65;2.90;;;6.10;99.90;;;;;;5017213;28;20028;-92
2021/01/23 17:42:28;;;;;;;7.20;3.38;;;6.10;99.90;;;;;;5042290;23;20069;-91
2021/01/23 17:45:21;;;;;;;7.38;3.85;;;6.10;99.90;;;;;;5206549;23;20568;-89
2021/01/23 17:47:56;;;;;;;7.28;3.85;;;6.00;99.90;;;;;;5048761;23;20049;-95
2021/01/23 17:50:32;;;;;;;5.65;2.45;;;6.00;99.90;;;;;;5044917;28;20079;-94
2021/01/23 17:52:58;;;;;;;3.63;2.55;;;6.00;99.90;;;;;;5284078;22;21165;-93
2021/01/23 17:55:39;;;;;;;4.28;2.90;;;5.90;99.90;;;;;;5033878;28;20037;-91
2021/01/23 17:58:06;;;;;;;3.67;2.57;;;5.80;99.90;;;;;;5015754;28;20029;-92
2021/01/23 18:00:37;;;;;;;5.15;2.80;;;5.90;99.90;;;;;;5016043;28;20268;-92
2021/01/23 18:03:04;;;;;;;6.15;2.78;;;5.70;99.90;;;;;;5028992;28;20067;-94
2021/01/23 18:05:34;;;;;;;4.15;2.97;;;5.80;99.90;;;;;;5027105;28;20034;-94
2021/01/23 18:08:18;;;;;;;4.57;2.92;;;5.80;99.90;;;;;;4992404;28;20034;-93
2021/01/23 18:10:44;;;;;;;3.67;2.40;;;5.80;99.90;;;;;;5008742;28;20120;-92
2021/01/23 18:13:32;;;;;;;9.45;3.00;;;5.80;99.90;;;;;;5013121;28;20075;-95
2021/01/23 18:15:59;;;;;;;5.63;2.97;;;6.10;99.90;;;;;;4997408;28;20085;-94
2021/01/23 18:19:09;;;;;;;4.35;2.90;;;5.80;99.90;;;;;;4987688;28;20030;-94
2021/01/23 18:21:37;;;;;;;7.80;2.85;;;5.80;99.90;;;;;;5031209;28;20018;-92
2021/01/23 18:24:13;;;;;;;8.27;3.35;;;5.70;99.90;;;;;;5029852;28;20044;-94
2021/01/23 18:26:39;;;;;;;5.70;3.10;;;5.70;99.90;;;;;;5014929;28;20029;-91
2021/01/23 18:29:07;;;;;;;8.82;3.63;;;5.70;99.90;;;;;;5024017;28;20029;-89
2021/01/23 18:31:34;;;;;;;7.78;3.80;;;5.70;99.90;;;;;;5027651;28;20033;-89
2021/01/23 18:34:02;;;;;;;5.95;3.30;;;5.60;99.90;;;;;;5010141;28;20188;-88
2021/01/23 18:36:30;;;;;;;6.25;4.22;;;5.50;99.90;;;;;;5008943;28;20030;-89
2021/01/23 18:38:56;;;;;;;8.48;3.75;;;5.50;99.90;;;;;;4992429;28;20642;-87
2021/01/23 18:41:23;;;;;;;9.35;3.92;;;5.40;99.90;;;;;;4975167;28;20073;-88
2021/01/23 18:43:49;;;;;;;7.13;3.97;;;4.90;99.90;;;;;;5002950;28;20044;-86
2021/01/23 18:46:15;;;;;;;10.38;6.25;;;4.90;99.90;;;;;;4972494;28;20038;-89
2021/01/23 18:48:43;;;;;;;11.15;4.65;;;5.20;99.90;;;;;;4966704;28;20511;-88
2021/01/23 18:51:22;;;;;;;14.35;7.43;;;5.10;99.90;;;;;;5003288;28;20030;-89
2021/01/23 18:53:47;;;;;;;8.18;4.47;;;5.10;99.90;;;;;;4967106;28;20034;-89
2021/01/23 18:56:16;;;;;;;8.43;5.30;;;5.10;99.90;;;;;;4985705;28;20022;-92
2021/01/23 18:58:45;;;;;;;9.35;4.45;;;5.00;99.90;;;;;;4963686;28;20035;-92
2021/01/23 19:01:19;;;;;;;9.35;4.07;;;5.00;99.90;;;;;;4959025;29;20039;-90
2021/01/23 19:03:45;;;;;;;7.85;4.50;;;5.00;99.90;;;;;;4979091;28;20108;-91
2021/01/23 19:06:15;;;;;;;9.48;4.70;;;5.00;99.90;;;;;;4963379;28;20051;-91
2021/01/23 19:08:43;;;;;;;8.27;4.70;;;4.90;99.90;;;;;;4939297;28;20031;-92
2021/01/23 19:11:10;;;;;;;6.93;4.10;;;4.90;99.90;;;;;;4961872;28;20103;-90
2021/01/23 19:13:36;;;;;;;8.32;4.35;;;4.80;99.90;;;;;;4975516;23;20059;-91
2021/01/23 19:16:02;;;;;;;7.80;5.70;;;4.90;99.90;;;;;;4985472;28;20421;-90
2021/01/23 19:18:30;;;;;;;8.30;5.00;;;4.90;99.90;;;;;;4981056;28;20043;-91
2021/01/23 19:26:14;;;;;;;7.57;3.97;;;4.90;99.90;;;;;;5318105;23;20050;-93
2021/01/23 19:29:14;;;;;;;7.80;4.63;;;4.90;99.90;;;;;;5135227;22;20126;-95
2021/01/23 19:31:43;;;;;;;10.82;5.00;;;5.00;99.90;;;;;;4969006;28;20055;-88
2021/01/23 19:34:31;;;;;;;10.25;5.78;;;4.30;99.90;;;;;;4975040;28;20023;-88
2021/01/23 19:36:59;;;;;;;8.68;4.65;;;4.90;99.90;;;;;;4995885;28;20125;-91
2021/01/23 19:39:26;;;;;;;9.38;5.18;;;6.10;99.90;;;;;;5009140;28;20026;-91
2021/01/23 19:41:51;;;;;;;8.50;4.90;;;5.00;99.90;;;;;;4983270;28;20045;-91
2021/01/23 19:44:19;;;;;;;7.95;4.65;;;4.90;99.90;;;;;;5009378;28;20035;-90
2021/01/23 19:46:51;;;;;;;7.50;4.90;;;4.90;99.90;;;;;;5008669;28;20018;-91
2021/01/23 19:49:23;;;;;;;11.93;4.60;;;5.00;99.90;;;;;;4993269;28;20101;-89
2021/01/23 19:51:52;;;;;;;12.82;5.82;;;4.90;99.90;;;;;;5008146;28;20053;-91
2021/01/23 19:54:39;;;;;;;7.80;4.90;;;5.00;99.90;;;;;;4996403;28;20026;-87
2021/01/23 19:57:06;;;;;;;10.23;6.18;;;5.00;99.90;;;;;;4987345;28;20045;-89
2021/01/23 19:59:44;;;;;;;;;;;;;;;;;;;;;
2021/01/23 20:02:14;;;;;;;10.85;7.07;;;4.90;99.90;;;;;;5011169;28;20049;-91
2021/01/23 20:04:50;;;;;;;19.23;8.68;;;4.90;99.90;;;;;;5009509;28;20046;-90
2021/01/23 20:07:17;;;;;;;12.23;7.20;;;4.90;99.90;;;;;;5010780;28;20065;-91
2021/01/23 20:09:48;;;;;;;13.05;7.38;;;4.90;99.90;;;;;;5004417;28;20141;-89
2021/01/23 20:12:18;;;;;;;15.77;8.43;;;4.80;99.90;;;;;;4992347;28;20046;-90
2021/01/23 20:15:14;;;;;;;13.82;7.90;;;4.90;99.90;;;;;;5016084;28;20046;-87
2021/01/23 20:17:43;;;;;;;10.95;6.53;;;4.80;99.90;;;;;;5001436;28;20054;-89
2021/01/23 20:20:25;;;;;;;;;;;;;;;;;;;;;
2021/01/23 20:22:52;;;;;;;10.00;6.43;;;4.70;99.90;;;;;;5010611;28;20053;-92
2021/01/23 20:25:19;;;;;;;10.18;6.78;;;4.70;99.90;;;;;;4974830;28;20045;-93
2021/01/23 20:28:21;;;;;;;8.85;4.93;;;4.70;99.90;;;;;;4995725;28;20054;-89
2021/01/23 20:30:51;;;;;;;11.13;5.93;;;4.60;99.90;;;;;;4991729;28;20039;-89
2021/01/23 20:33:17;;;;;;;8.68;5.55;;;4.50;99.90;;;;;;5005114;28;20073;-91
2021/01/23 20:35:44;;;;;;;6.07;3.72;;;4.00;99.90;;;;;;4982023;28;20050;-89
2021/01/23 20:38:10;;;;;;;8.95;4.47;;;4.30;99.90;;;;;;4988646;28;20023;-90
2021/01/23 20:40:37;;;;;;;6.75;3.78;;;4.10;99.90;;;;;;4984897;28;20037;-89
2021/01/23 20:43:04;;;;;;;6.55;4.05;;;4.10;99.90;;;;;;4992830;28;20037;-89
2021/01/23 20:45:30;;;;;;;8.07;3.20;;;4.00;99.90;;;;;;4987051;28;20121;-85
2021/01/23 20:48:03;;;;;;;4.97;3.25;;;3.80;99.90;;;;;;4992029;28;20058;-85
2021/01/23 20:50:32;;;;;;;5.20;3.90;;;3.80;99.90;;;;;;4997594;28;20022;-86
2021/01/23 20:53:02;;;;;;;6.50;3.92;;;4.70;99.90;;;;;;4995374;28;20039;-85
2021/01/23 20:55:29;;;;;;;5.65;3.67;;;3.60;99.90;;;;;;5001827;28;20041;-85
2021/01/23 20:57:55;;;;;;;10.88;6.47;;;3.60;99.90;;;;;;5004200;28;20031;-86
2021/01/23 21:00:27;;;;;;;7.03;5.20;;;3.70;99.90;;;;;;4989214;28;20030;-85
2021/01/23 21:02:53;;;;;;;10.15;5.20;;;3.60;99.90;;;;;;4958685;29;20043;-84
2021/01/23 21:05:33;;;;;;;8.40;5.00;;;3.70;99.90;;;;;;4950790;28;20059;-85
2021/01/23 21:08:00;;;;;;;8.43;5.57;;;3.70;99.90;;;;;;4968055;28;20035;-85
2021/01/23 21:10:26;;;;;;;9.73;5.95;;;3.70;99.90;;;;;;4967465;29;20023;-84
2021/01/23 21:13:29;;;;;;;10.20;6.32;;;3.70;99.90;;;;;;4971054;29;20221;-84
2021/01/23 21:15:58;;;;;;;11.35;7.00;;;3.60;99.90;;;;;;4935082;28;20039;-84
2021/01/23 21:18:23;;;;;;;12.18;6.78;;;4.00;99.90;;;;;;4976545;28;20038;-85
2021/01/23 21:20:50;;;;;;;13.10;7.15;;;3.60;99.90;;;;;;4943928;29;20027;-85
2021/01/23 21:23:16;;;;;;;12.13;7.30;;;3.50;99.90;;;;;;4939192;29;20045;-85
2021/01/23 21:25:41;;;;;;;12.05;6.90;;;3.40;99.90;;;;;;4956536;29;20063;-84
2021/01/23 21:28:08;;;;;;;9.25;6.82;;;2.60;99.90;;;;;;4963143;28;20051;-86
2021/01/23 21:30:34;;;;;;;11.25;7.55;;;3.40;99.90;;;;;;4969221;28;20050;-85
2021/01/23 21:33:06;;;;;;;13.23;8.35;;;3.40;99.90;;;;;;4970593;28;20362;-84
2021/01/23 21:36:19;;;;;;;13.02;8.90;;;3.30;99.90;;;;;;4979846;28;20483;-84
2021/01/23 21:38:44;;;;;;;10.95;6.82;;;3.30;99.90;;;;;;4972973;28;20041;-84
2021/01/23 21:41:10;;;;;;;14.65;8.35;;;3.30;99.90;;;;;;4984706;28;20082;-84
2021/01/23 21:43:36;;;;;;;15.75;8.45;;;3.30;99.90;;;;;;4991280;28;20431;-84
2021/01/23 21:46:03;;;;;;;14.43;9.20;;;3.60;99.90;;;;;;4974273;28;20027;-84
2021/01/23 21:48:30;;;;;;;14.20;9.00;;;3.30;99.90;;;;;;4977156;28;20065;-84
2021/01/23 21:50:57;;;;;;;13.88;7.63;;;3.30;99.90;;;;;;4978924;28;20031;-83
2021/01/23 21:53:29;;;;;;;11.15;8.02;;;3.30;99.90;;;;;;4997400;28;20031;-84
2021/01/23 21:55:55;;;;;;;13.75;8.60;;;3.20;99.90;;;;;;4989941;28;20506;-86